Time;durP1;ratioP1;P1;durP2;ratioP2;P2;SDS_P1;SDS_P2;PMS_P1;PMS_P2;Temp;Humidity;BMP_temperature;BMP_pressure;BME280_temperature;BME280_humidity;BME280_pressure;Samples;Min_cycle;Max_cycle;Signal;HPM_P1;HPM_P2
2022/04/12 00:00:12;;;;;;;6.00;2.87;;;;;;;8.44;56.45;100988.22;5024234;28;20028;-90
2022/04/12 00:02:37;;;;;;;6.63;2.83;;;;;;;8.42;56.51;100980.44;5037534;28;20296;-89
2022/04/12 00:05:03;;;;;;;5.85;2.90;;;;;;;8.45;56.87;100984.50;5030783;28;20042;-89
2022/04/12 00:07:28;;;;;;;9.50;3.30;;;;;;;8.44;57.01;100977.53;5048820;28;20013;-89
2022/04/12 00:09:55;;;;;;;5.80;3.20;;;;;;;8.45;56.79;100968.47;5051010;28;20251;-90
2022/04/12 00:12:20;;;;;;;8.90;3.35;;;;;;;8.47;57.52;100961.84;5046910;28;20034;-89
2022/04/12 00:14:46;;;;;;;7.33;3.30;;;;;;;8.48;57.01;100968.03;5033596;28;20686;-89
2022/04/12 00:25:10;;;;;;;4.97;2.85;;;;;;;8.36;57.67;100956.56;6049459;22;20024;-92
2022/04/12 00:27:37;;;;;;;7.35;2.92;;;;;;;8.36;57.51;100959.25;5037089;28;20370;-91
2022/04/12 00:30:12;;;;;;;4.28;3.03;;;;;;;8.26;58.24;100949.97;5023893;28;20535;-92
2022/04/12 00:32:37;;;;;;;6.15;2.85;;;;;;;8.28;57.81;100947.88;5021445;28;20044;-91
2022/04/12 00:35:09;;;;;;;7.03;3.45;;;;;;;8.29;58.00;100948.72;5038625;28;20010;-93
2022/04/12 00:37:35;;;;;;;8.40;3.27;;;;;;;8.27;57.63;100954.28;5287520;22;20040;-91
2022/04/12 00:40:04;;;;;;;5.60;3.30;;;;;;;8.28;57.80;100947.09;5036627;28;20297;-91
2022/04/12 00:42:30;;;;;;;5.63;3.00;;;;;;;8.33;57.58;100957.84;5021853;28;20023;-91
2022/04/12 00:44:55;;;;;;;9.82;3.10;;;;;;;8.28;57.72;100953.22;5027602;28;20041;-90
2022/04/12 00:47:20;;;;;;;7.33;3.27;;;;;;;8.31;58.16;100952.75;5026074;28;20713;-91
2022/04/12 00:49:46;;;;;;;5.27;3.13;;;;;;;8.33;57.69;100953.31;5017379;28;20036;-91
2022/04/12 00:52:11;;;;;;;7.37;2.97;;;;;;;8.31;57.75;100959.94;5016381;28;20030;-91
2022/04/12 00:54:41;;;;;;;7.30;3.08;;;;;;;8.20;57.54;100942.94;5039572;22;20124;-91
2022/04/12 00:57:10;;;;;;;6.00;3.00;;;;;;;8.30;58.17;100947.66;5043584;28;20033;-91
2022/04/12 00:59:40;;;;;;;5.38;2.70;;;;;;;8.25;57.72;100939.56;5030200;28;20033;-91
2022/04/12 01:02:06;;;;;;;7.67;2.93;;;;;;;8.19;58.02;100944.78;5024716;28;20029;-91
2022/04/12 01:04:35;;;;;;;6.47;3.10;;;;;;;8.12;58.86;100949.47;5027530;28;20281;-92
2022/04/12 01:07:09;;;;;;;5.47;2.90;;;;;;;8.07;58.91;100953.88;5027900;28;20037;-91
2022/04/12 01:09:35;;;;;;;6.72;2.92;;;;;;;8.02;58.77;100950.09;5002092;28;20040;-91
2022/04/12 01:12:08;;;;;;;7.23;2.80;;;;;;;8.02;58.47;100947.44;5016571;28;20485;-91
2022/04/12 01:14:34;;;;;;;5.88;3.00;;;;;;;7.95;58.86;100938.75;5015632;28;20021;-91
2022/04/12 01:17:04;;;;;;;5.68;2.75;;;;;;;7.91;59.00;100942.91;5016187;28;20032;-90
2022/04/12 01:19:29;;;;;;;5.07;3.03;;;;;;;7.84;59.80;100942.25;5015860;28;20057;-91
2022/04/12 01:22:00;;;;;;;5.47;3.20;;;;;;;7.81;59.46;100940.06;5016203;28;20300;-91
2022/04/12 01:24:27;;;;;;;5.20;2.90;;;;;;;7.70;59.87;100936.38;5030252;28;20026;-91
2022/04/12 01:26:52;;;;;;;4.67;2.80;;;;;;;7.71;59.83;100940.66;5015376;28;20332;-90
2022/04/12 01:29:18;;;;;;;5.10;2.72;;;;;;;7.67;59.81;100950.19;5014742;28;20024;-92
2022/04/12 01:31:43;;;;;;;5.13;2.73;;;;;;;7.64;59.98;100946.13;5018070;28;20041;-90
2022/04/12 01:34:08;;;;;;;6.30;2.80;;;;;;;7.58;60.62;100939.06;5033395;28;20077;-90
2022/04/12 01:36:35;;;;;;;8.05;3.05;;;;;;;7.60;60.57;100941.47;5014101;28;20028;-91
2022/04/12 01:39:02;;;;;;;5.40;2.85;;;;;;;7.56;60.28;100941.16;5013025;28;20054;-90
2022/04/12 01:41:27;;;;;;;5.43;2.77;;;;;;;7.49;60.50;100935.13;5012805;28;20018;-91
2022/04/12 01:43:52;;;;;;;6.63;3.00;;;;;;;7.50;61.02;100939.41;5014558;28;20295;-91
2022/04/12 01:48:47;;;;;;;4.47;2.60;;;;;;;7.28;61.18;100924.84;5032474;28;20048;-91
2022/04/12 01:51:14;;;;;;;8.95;3.10;;;;;;;7.27;62.17;100922.41;5017228;28;20036;-90
2022/04/12 01:53:39;;;;;;;7.43;2.63;;;;;;;7.29;62.22;100936.31;5009591;28;20037;-91
2022/04/12 01:56:05;;;;;;;6.17;2.90;;;;;;;7.18;62.96;100918.47;5034660;28;20396;-91
2022/04/12 01:58:32;;;;;;;5.27;2.90;;;;;;;7.19;63.25;100934.25;5035130;28;20107;-91
2022/04/12 02:01:00;;;;;;;5.50;2.70;;;;;;;7.10;63.41;100923.13;5020817;28;20330;-91
2022/04/12 02:03:31;;;;;;;4.13;2.85;;;;;;;7.04;63.48;100918.72;5048322;28;20021;-91
2022/04/12 02:05:56;;;;;;;7.07;3.30;;;;;;;7.00;63.41;100916.75;5035309;28;20033;-91
2022/04/12 02:08:23;;;;;;;4.27;2.73;;;;;;;6.91;63.94;100914.41;4997624;28;20105;-91
2022/04/12 02:10:48;;;;;;;4.82;2.90;;;;;;;6.87;63.89;100923.09;5049540;28;20083;-91
2022/04/12 02:13:16;;;;;;;7.03;3.00;;;;;;;6.88;64.55;100932.72;5035839;28;20029;-89
2022/04/12 02:15:42;;;;;;;5.95;2.92;;;;;;;6.83;64.47;100930.75;5054478;28;20012;-91
2022/04/12 02:18:08;;;;;;;5.45;2.78;;;;;;;6.80;64.38;100926.69;5054079;28;20098;-90
2022/04/12 02:20:37;;;;;;;6.93;2.97;;;;;;;6.78;65.51;100920.75;5053014;28;20484;-91
2022/04/12 02:23:03;;;;;;;7.13;2.95;;;;;;;6.73;64.86;100923.34;5021248;28;20026;-90
2022/04/12 02:25:28;;;;;;;6.33;3.03;;;;;;;6.68;65.58;100917.88;5016885;28;20032;-90
2022/04/12 02:28:12;;;;;;;6.50;3.22;;;;;;;6.66;65.46;100920.75;5665804;22;20008;-90
2022/04/12 02:30:47;;;;;;;5.95;2.85;;;;;;;6.64;65.94;100919.38;5013812;28;20381;-90
2022/04/12 02:33:12;;;;;;;6.38;2.60;;;;;;;6.60;66.28;100923.50;5015666;28;20030;-90
2022/04/12 02:35:43;;;;;;;8.07;2.93;;;;;;;6.51;65.97;100910.56;5015606;28;20072;-90
2022/04/12 02:38:09;;;;;;;5.78;3.08;;;;;;;6.51;66.01;100910.56;5013752;28;20436;-90
2022/04/12 02:40:38;;;;;;;5.70;3.00;;;;;;;6.44;66.16;100903.72;5012911;28;20028;-91
2022/04/12 02:43:04;;;;;;;5.27;2.83;;;;;;;6.43;66.09;100905.53;5014899;28;20034;-90
2022/04/12 02:45:29;;;;;;;8.97;3.13;;;;;;;6.40;66.71;100899.88;5012677;28;20311;-90
2022/04/12 02:48:06;;;;;;;7.10;3.20;;;;;;;6.42;66.78;100911.91;5017403;28;20025;-90
2022/04/12 02:50:50;;;;;;;6.63;2.85;;;;;;;6.39;67.12;100912.34;5017299;28;20018;-90
2022/04/12 02:53:16;;;;;;;7.70;2.97;;;;;;;6.27;67.69;100892.88;5014616;28;20030;-90
2022/04/12 02:55:42;;;;;;;5.47;2.60;;;;;;;6.26;67.64;100900.06;5011987;28;20301;-88
2022/04/12 02:58:08;;;;;;;9.68;2.80;;;;;;;6.20;68.01;100898.31;5016450;28;20052;-90
2022/04/12 03:00:34;;;;;;;4.83;2.77;;;;;;;6.14;68.35;100894.72;5013761;28;20022;-90
2022/04/12 03:02:59;;;;;;;7.43;3.17;;;;;;;6.08;68.57;100898.25;5014628;28;20783;-89
2022/04/12 03:05:24;;;;;;;4.43;2.70;;;;;;;6.05;68.82;100896.06;5013573;28;20435;-89
2022/04/12 03:07:51;;;;;;;5.47;3.07;;;;;;;6.03;69.07;100887.47;5016343;28;20026;-90
2022/04/12 03:10:16;;;;;;;6.35;3.15;;;;;;;6.02;69.20;100888.53;5014585;28;20060;-89
2022/04/12 03:12:41;;;;;;;7.07;3.30;;;;;;;6.02;70.03;100888.53;5015863;28;20038;-91
2022/04/12 03:15:09;;;;;;;6.57;2.93;;;;;;;5.98;69.83;100884.69;5016644;28;20034;-90
2022/04/12 03:17:34;;;;;;;5.35;3.03;;;;;;;5.92;69.82;100870.44;5017375;28;20094;-90
2022/04/12 03:20:00;;;;;;;5.93;2.90;;;;;;;5.90;69.64;100877.81;5014654;28;20040;-91
2022/04/12 03:22:25;;;;;;;6.03;3.05;;;;;;;5.89;69.99;100881.53;5015357;28;20044;-91
2022/04/12 03:24:51;;;;;;;6.17;3.00;;;;;;;5.88;70.01;100866.59;5016036;28;20034;-91
2022/04/12 03:27:16;;;;;;;9.43;3.17;;;;;;;5.89;70.83;100861.03;5014858;28;20037;-91
2022/04/12 03:29:42;;;;;;;7.22;3.30;;;;;;;5.88;70.22;100847.97;5014119;28;20084;-91
2022/04/12 03:32:10;;;;;;;5.77;3.03;;;;;;;5.96;70.10;100857.50;5015164;28;20025;-90
2022/04/12 03:34:36;;;;;;;8.75;3.63;;;;;;;5.95;70.44;100858.53;5016079;28;20084;-92
2022/04/12 03:37:01;;;;;;;7.22;3.47;;;;;;;5.89;70.40;100850.41;5001170;28;20038;-90
2022/04/12 03:39:27;;;;;;;8.40;3.43;;;;;;;5.81;70.59;100850.72;4994130;28;20069;-91
2022/04/12 03:41:55;;;;;;;8.57;3.47;;;;;;;5.82;70.82;100856.84;5008970;28;20032;-91
2022/04/12 03:44:20;;;;;;;7.63;3.20;;;;;;;5.81;71.16;100861.38;5016357;28;20029;-91
2022/04/12 03:46:46;;;;;;;6.43;3.10;;;;;;;5.80;71.68;100859.75;5018091;28;20100;-90
2022/04/12 03:49:11;;;;;;;5.00;3.50;;;;;;;5.83;71.02;100866.44;5015612;28;20036;-90
2022/04/12 03:51:37;;;;;;;7.78;3.20;;;;;;;5.73;70.84;100846.53;5015023;28;20041;-90
2022/04/12 03:54:03;;;;;;;5.17;3.10;;;;;;;5.74;70.89;100873.94;5014635;28;20025;-90
2022/04/12 03:56:28;;;;;;;7.03;3.67;;;;;;;5.66;71.42;100869.72;5016791;28;20092;-90
2022/04/12 03:58:54;;;;;;;6.57;3.30;;;;;;;5.58;71.59;100864.69;5029597;28;20034;-90
2022/04/12 04:01:20;;;;;;;7.30;3.40;;;;;;;5.51;71.84;100858.66;5018607;28;20029;-90
2022/04/12 04:03:46;;;;;;;6.40;3.63;;;;;;;5.51;72.21;100840.88;5014608;28;20418;-91
2022/04/12 04:06:12;;;;;;;11.00;3.87;;;;;;;5.56;72.52;100846.34;5015019;28;20037;-90
2022/04/12 04:08:38;;;;;;;5.50;3.28;;;;;;;5.66;72.39;100852.97;5014958;28;20033;-89
2022/04/12 04:11:04;;;;;;;6.68;3.45;;;;;;;5.67;72.17;100852.75;5024782;28;20038;-89
2022/04/12 04:13:36;;;;;;;6.33;3.30;;;;;;;5.68;72.11;100862.34;5015139;28;20036;-90
2022/04/12 04:16:02;;;;;;;7.43;3.55;;;;;;;5.66;72.52;100858.28;5014349;28;20157;-91
2022/04/12 04:18:28;;;;;;;7.13;3.65;;;;;;;5.69;72.44;100860.47;5014040;28;20025;-89
2022/04/12 04:20:53;;;;;;;6.67;3.50;;;;;;;5.70;72.12;100851.47;5013488;28;20088;-90
2022/04/12 04:23:19;;;;;;;6.80;3.47;;;;;;;5.80;72.62;100858.91;5014456;28;20362;-91
2022/04/12 04:25:44;;;;;;;6.63;3.80;;;;;;;5.88;72.01;100847.97;5014999;28;20026;-91
2022/04/12 04:28:12;;;;;;;6.90;3.60;;;;;;;5.93;72.24;100855.28;5013768;28;20117;-90
2022/04/12 04:30:38;;;;;;;8.37;3.60;;;;;;;5.99;71.91;100854.38;5011681;28;20034;-90
2022/04/12 04:33:05;;;;;;;7.18;3.30;;;;;;;5.99;71.57;100851.72;5014464;28;20041;-90
2022/04/12 04:35:30;;;;;;;9.98;3.95;;;;;;;6.01;71.66;100847.03;5017523;28;20033;-91
2022/04/12 04:37:55;;;;;;;6.60;3.87;;;;;;;5.98;71.45;100850.09;5016239;28;20018;-91
2022/04/12 04:40:22;;;;;;;7.97;3.60;;;;;;;5.90;71.62;100851.22;5015639;28;20034;-91
2022/04/12 04:42:51;;;;;;;6.18;3.60;;;;;;;5.80;72.06;100856.25;5014553;28;20036;-91
2022/04/12 04:45:16;;;;;;;10.35;3.67;;;;;;;5.71;72.74;100858.41;5015587;28;20037;-90
2022/04/12 04:47:56;;;;;;;8.05;3.60;;;;;;;5.58;72.31;100857.56;5018279;28;20030;-96
2022/04/12 04:50:23;;;;;;;10.18;3.72;;;;;;;5.53;73.62;100862.72;5015343;28;20032;-92
2022/04/12 04:52:49;;;;;;;6.00;3.57;;;;;;;5.50;73.50;100867.69;5017530;28;20022;-93
2022/04/12 04:55:16;;;;;;;6.20;3.63;;;;;;;5.47;74.17;100876.91;5017498;28;20292;-93
2022/04/12 04:57:43;;;;;;;8.70;4.10;;;;;;;5.46;74.77;100877.97;5021437;28;20041;-90
2022/04/12 05:00:17;;;;;;;5.88;3.47;;;;;;;5.49;74.52;100887.31;5022410;28;20046;-92
2022/04/12 05:02:47;;;;;;;6.20;3.60;;;;;;;5.44;74.31;100880.03;5022916;28;20014;-93
2022/04/12 05:05:14;;;;;;;5.65;3.88;;;;;;;5.46;74.48;100880.63;5024160;28;20037;-95
2022/04/12 05:11:22;;;;;;;8.00;4.22;;;;;;;5.45;73.99;100898.38;5014501;28;20037;-94
2022/04/12 05:14:23;;;;;;;7.18;3.65;;;;;;;5.39;74.13;100877.22;5013177;28;20105;-94
2022/04/12 05:16:48;;;;;;;7.45;3.92;;;;;;;5.60;74.66;100889.22;4952718;29;20039;-94
2022/04/12 05:19:17;;;;;;;8.90;4.23;;;;;;;5.64;74.56;100877.13;5051828;22;20046;-92
2022/04/12 05:24:18;;;;;;;14.27;4.10;;;;;;;5.96;73.77;100882.22;5243363;22;20061;-93
2022/04/12 05:26:43;;;;;;;8.37;4.00;;;;;;;6.10;73.30;100882.88;5033397;28;20033;-93
2022/04/12 05:29:37;;;;;;;8.00;4.37;;;;;;;6.24;72.67;100875.53;5024120;28;20292;-93
2022/04/12 05:32:52;;;;;;;6.27;4.03;;;;;;;6.36;72.44;100876.38;5014528;28;20033;-92
2022/04/12 05:35:21;;;;;;;13.63;4.10;;;;;;;6.40;72.47;100860.75;5015006;28;20363;-93
2022/04/12 05:37:52;;;;;;;11.80;5.22;;;;;;;6.48;72.43;100871.06;5023170;28;20080;-94
2022/04/12 05:40:22;;;;;;;9.27;4.28;;;;;;;6.50;72.06;100868.16;5008687;28;20038;-92
2022/04/12 05:42:49;;;;;;;11.45;4.97;;;;;;;6.48;72.28;100873.72;5037282;22;20049;-94
2022/04/12 05:45:42;;;;;;;8.20;4.25;;;;;;;6.47;72.37;100872.09;5030609;28;20052;-93
2022/04/12 05:48:38;;;;;;;9.55;4.65;;;;;;;6.41;72.07;100873.00;5032985;28;20029;-93
2022/04/12 05:51:39;;;;;;;8.32;4.38;;;;;;;6.38;72.40;100872.66;5022864;28;20128;-93
2022/04/12 05:54:34;;;;;;;9.75;4.60;;;;;;;6.36;73.12;100871.03;5051187;28;20033;-92
2022/04/12 05:57:38;;;;;;;8.43;4.35;;;;;;;6.42;72.60;100890.59;5029058;22;20041;-92
2022/04/12 06:00:42;;;;;;;8.23;5.13;;;;;;;6.38;72.72;100884.13;5014551;28;20066;-92
2022/04/12 06:03:16;;;;;;;6.80;4.37;;;;;;;6.43;72.24;100864.81;5025751;28;20299;-92
2022/04/12 06:05:42;;;;;;;9.15;4.82;;;;;;;6.60;72.36;100875.59;5015297;28;20367;-93
2022/04/12 06:08:08;;;;;;;7.95;4.80;;;;;;;6.65;71.83;100873.88;5013483;28;20057;-86
2022/04/12 06:10:42;;;;;;;12.00;5.10;;;;;;;6.74;72.15;100877.00;5024259;28;20047;-85
2022/04/12 06:13:07;;;;;;;9.65;5.10;;;;;;;6.86;71.33;100878.88;5018101;28;20492;-85
2022/04/12 06:15:35;;;;;;;9.60;5.10;;;;;;;6.92;71.14;100872.63;5021267;28;20041;-86
2022/04/12 06:18:21;;;;;;;10.75;5.00;;;;;;;7.12;70.91;100890.91;5011834;28;20187;-85
2022/04/12 06:20:46;;;;;;;7.60;4.55;;;;;;;7.24;70.88;100880.22;5028851;28;20038;-85
2022/04/12 06:23:11;;;;;;;12.60;5.03;;;;;;;7.37;70.00;100881.84;5030580;28;20212;-86
2022/04/12 06:25:37;;;;;;;9.63;5.20;;;;;;;7.47;70.13;100886.56;5029870;28;20057;-86
2022/04/12 06:28:02;;;;;;;8.83;4.77;;;;;;;7.54;69.72;100887.25;5031229;28;20029;-87
2022/04/12 06:30:30;;;;;;;11.27;5.53;;;;;;;7.69;69.49;100886.75;5025286;28;20295;-91
2022/04/12 06:32:56;;;;;;;9.82;5.40;;;;;;;7.80;69.28;100887.75;5017202;28;20030;-91
2022/04/12 06:35:22;;;;;;;11.63;5.20;;;;;;;7.89;68.79;100886.31;5018432;28;20488;-88
2022/04/12 06:37:52;;;;;;;8.70;5.10;;;;;;;8.05;67.70;100903.44;5018274;28;20299;-89
2022/04/12 06:40:19;;;;;;;11.18;5.20;;;;;;;8.16;67.44;100891.09;5016498;28;20033;-88
2022/04/12 06:42:45;;;;;;;9.55;5.47;;;;;;;8.30;67.45;100907.63;5030199;28;20034;-88
2022/04/12 06:45:13;;;;;;;10.32;5.60;;;;;;;8.39;67.21;100900.81;5055123;28;20025;-87
2022/04/12 06:47:40;;;;;;;11.47;5.40;;;;;;;8.51;66.68;100900.78;5051764;28;20034;-87
2022/04/12 06:50:09;;;;;;;8.77;5.03;;;;;;;8.55;66.61;100893.91;5049888;28;20026;-85
2022/04/12 06:52:38;;;;;;;12.20;5.28;;;;;;;8.63;66.12;100887.34;5055914;28;20028;-86
2022/04/12 06:55:04;;;;;;;8.93;5.15;;;;;;;8.78;66.53;100876.06;5027653;28;20032;-85
2022/04/12 06:57:35;;;;;;;10.98;5.15;;;;;;;8.88;65.71;100875.41;5024700;28;20041;-84
2022/04/12 07:00:03;;;;;;;7.97;5.00;;;;;;;8.98;64.77;100877.44;5035569;28;20056;-86
2022/04/12 07:02:28;;;;;;;11.30;4.75;;;;;;;9.08;64.85;100874.91;5022256;28;20033;-87
2022/04/12 07:04:54;;;;;;;10.90;4.80;;;;;;;9.15;64.30;100880.88;5017217;28;20042;-87
2022/04/12 07:07:20;;;;;;;8.87;4.80;;;;;;;9.24;64.59;100883.94;5020628;28;20678;-86
2022/04/12 07:09:45;;;;;;;12.07;5.60;;;;;;;9.36;65.19;100881.16;5029993;28;20021;-86
2022/04/12 07:12:12;;;;;;;8.87;4.80;;;;;;;9.51;63.39;100873.31;5026930;28;20048;-86
2022/04/12 07:14:37;;;;;;;10.02;4.80;;;;;;;9.67;63.01;100876.19;5041100;28;20026;-86
2022/04/12 07:17:03;;;;;;;7.90;5.20;;;;;;;9.79;63.51;100868.81;5039750;28;20033;-85
2022/04/12 07:19:29;;;;;;;12.70;5.43;;;;;;;9.99;62.61;100878.13;5035019;28;20044;-87
2022/04/12 07:21:54;;;;;;;11.18;4.78;;;;;;;10.20;61.47;100883.69;5047920;28;20017;-86
2022/04/12 07:24:20;;;;;;;10.43;4.60;;;;;;;10.30;61.42;100883.75;5035496;28;20040;-87
2022/04/12 07:26:46;;;;;;;9.90;5.03;;;;;;;10.49;61.12;100888.78;5028424;28;20082;-92
2022/04/12 07:29:12;;;;;;;10.30;4.72;;;;;;;10.66;61.28;100892.13;5024423;28;20033;-93
2022/04/12 07:31:38;;;;;;;9.10;5.05;;;;;;;10.83;60.57;100886.63;5030997;28;20025;-85
2022/04/12 07:34:03;;;;;;;9.20;4.90;;;;;;;10.98;59.77;100869.81;5034088;28;20033;-92
2022/04/12 07:36:29;;;;;;;8.17;4.47;;;;;;;11.11;58.75;100870.44;5041655;28;20370;-93
2022/04/12 07:38:54;;;;;;;8.88;4.45;;;;;;;11.24;58.73;100863.78;5034091;28;20048;-95
2022/04/12 07:41:22;;;;;;;10.13;4.70;;;;;;;11.34;58.62;100866.53;5039949;28;20041;-94
2022/04/12 07:43:49;;;;;;;7.13;4.60;;;;;;;11.50;57.96;100873.56;5040380;28;20038;-94
2022/04/12 07:46:17;;;;;;;10.27;4.25;;;;;;;11.69;58.92;100880.31;5042778;28;20025;-96
2022/04/12 07:48:43;;;;;;;6.65;4.00;;;;;;;11.84;57.12;100877.69;5046909;28;20026;-94
2022/04/12 07:51:10;;;;;;;8.10;4.40;;;;;;;12.04;56.94;100881.53;5031167;28;20080;-93
2022/04/12 07:53:39;;;;;;;12.13;4.18;;;;;;;12.19;56.49;100886.91;5004504;28;20080;-95
2022/04/12 07:56:05;;;;;;;12.55;4.70;;;;;;;12.38;56.52;100886.41;5029498;28;20030;-92
2022/04/12 08:02:07;;;;;;;8.63;3.83;;;;;;;12.79;55.40;100882.88;5030748;22;20064;-88
2022/04/12 08:04:32;;;;;;;6.57;4.10;;;;;;;12.86;54.90;100862.69;4885916;29;20053;-85
2022/04/12 08:09:36;;;;;;;9.77;3.60;;;;;;;13.05;54.00;100864.78;5217852;22;20068;-85
2022/04/12 08:12:07;;;;;;;7.07;4.07;;;;;;;13.20;54.11;100873.88;5015821;28;20401;-85
2022/04/12 08:14:41;;;;;;;6.50;3.87;;;;;;;13.17;54.44;100869.88;5016396;28;20508;-85
2022/04/12 08:17:14;;;;;;;7.83;3.47;;;;;;;13.47;54.06;100884.31;5017080;28;20351;-84
2022/04/12 08:19:40;;;;;;;7.63;3.17;;;;;;;13.56;52.69;100881.84;5015160;28;20037;-81
2022/04/12 08:22:06;;;;;;;5.63;3.22;;;;;;;13.70;53.26;100890.16;5012130;28;20034;-82
2022/04/12 08:24:31;;;;;;;5.38;3.05;;;;;;;13.80;53.21;100894.66;5009876;28;20546;-82
2022/04/12 08:26:57;;;;;;;7.03;2.97;;;;;;;13.96;52.56;100896.19;5009492;28;20030;-83
2022/04/12 08:36:16;;;;;;;5.10;3.10;;;;;;;14.08;51.32;100877.78;5011961;28;20100;-82
2022/04/12 08:39:13;;;;;;;3.50;2.97;;;;;;;14.28;50.98;100880.63;4991216;28;20378;-82
2022/04/12 08:41:39;;;;;;;6.38;3.17;;;;;;;14.31;49.74;100870.06;4990979;28;20061;-81
2022/04/12 08:44:32;;;;;;;4.43;2.70;;;;;;;14.51;50.25;100876.38;4990695;28;20030;-82
2022/04/12 08:47:04;;;;;;;5.67;2.83;;;;;;;14.53;50.74;100872.31;4991991;28;20320;-81
2022/04/12 08:49:29;;;;;;;6.13;3.17;;;;;;;14.49;49.50;100865.06;4988359;28;20050;-81
2022/04/12 08:52:04;;;;;;;5.63;3.00;;;;;;;14.47;49.83;100861.84;4991635;28;20034;-83
2022/04/12 08:54:37;;;;;;;5.95;2.95;;;;;;;14.50;49.75;100854.03;4991109;28;20042;-82
2022/04/12 09:00:30;;;;;;;7.07;2.83;;;;;;;14.69;50.13;100851.44;4973113;28;20300;-83
2022/04/12 09:03:07;;;;;;;7.15;3.10;;;;;;;14.66;50.09;100841.19;4989122;28;20018;-84
2022/04/12 09:16:00;;;;;;;6.85;2.88;;;;;;;15.09;50.43;100835.09;4940485;28;20125;-83
2022/04/12 09:22:27;;;;;;;10.05;2.90;;;;;;;15.43;49.71;100834.13;4975381;28;20154;-82
2022/04/12 09:25:10;;;;;;;5.47;2.58;;;;;;;15.59;49.01;100832.03;4972572;28;20441;-82
2022/04/12 09:30:39;;;;;;;3.30;2.37;;;;;;;15.73;49.46;100823.19;5316101;23;20307;-90
2022/04/12 09:37:17;;;;;;;6.32;2.50;;;;;;;16.00;49.01;100819.84;5053486;22;20063;-91
2022/04/12 09:40:22;;;;;;;10.93;2.35;;;;;;;16.20;48.44;100821.41;4973310;28;20093;-89
2022/04/12 10:00:07;;;;;;;6.90;2.80;;;;;;;16.92;46.91;100829.34;5010706;28;20319;-90
2022/04/12 10:02:38;;;;;;;7.13;2.83;;;;;;;17.14;45.68;100806.22;5011584;28;20533;-90
2022/04/12 10:18:09;;;;;;;5.45;3.00;;;;;;;17.94;45.29;100801.16;5379596;22;20057;-89
2022/04/12 10:24:40;;;;;;;5.00;2.92;;;;;;;18.58;43.14;100797.41;4975057;28;20078;-89
2022/04/12 10:51:07;;;;;;;6.43;3.00;;;;;;;19.94;40.21;100784.19;5014970;28;20050;-83
2022/04/12 10:53:38;;;;;;;5.67;3.03;;;;;;;20.04;40.54;100783.88;5007742;28;20038;-84
2022/04/12 10:56:11;;;;;;;7.07;3.08;;;;;;;20.11;39.99;100778.72;5011214;28;20033;-84
2022/04/12 10:58:37;;;;;;;9.05;3.42;;;;;;;20.31;40.63;100776.41;5009204;28;20501;-85
2022/04/12 11:01:05;;;;;;;6.05;3.03;;;;;;;20.46;38.96;100768.84;5009753;28;20029;-83
2022/04/12 11:03:54;;;;;;;8.05;3.30;;;;;;;20.65;40.10;100760.28;5009772;28;20515;-82
2022/04/12 11:06:23;;;;;;;8.27;3.20;;;;;;;20.60;39.86;100752.28;5010411;28;20048;-82
2022/04/12 11:08:51;;;;;;;4.85;3.13;;;;;;;20.23;39.63;100758.22;5009313;28;20053;-83
2022/04/12 11:11:27;;;;;;;7.50;2.60;;;;;;;20.48;39.58;100769.31;5015133;28;20034;-83
2022/04/12 11:14:16;;;;;;;7.30;3.23;;;;;;;20.53;39.22;100774.56;5007834;28;20881;-81
2022/04/12 11:16:57;;;;;;;4.00;2.65;;;;;;;20.78;39.94;100777.53;5010572;28;20026;-82
2022/04/12 11:19:24;;;;;;;5.85;2.83;;;;;;;21.06;38.24;100777.03;5012448;28;20034;-83
2022/04/12 11:21:50;;;;;;;5.43;3.00;;;;;;;21.24;37.96;100783.97;5011922;28;20028;-85
2022/04/12 11:24:17;;;;;;;5.68;2.83;;;;;;;21.09;38.01;100769.00;5012456;28;20053;-83
2022/04/12 11:26:48;;;;;;;4.57;3.25;;;;;;;21.03;37.23;100752.06;5012901;28;20088;-84
2022/04/12 11:29:14;;;;;;;6.93;3.10;;;;;;;21.01;37.49;100753.53;5011751;28;20030;-84
2022/04/12 11:31:44;;;;;;;4.78;3.30;;;;;;;21.08;37.48;100748.38;5013180;28;20021;-83
2022/04/12 11:34:11;;;;;;;6.60;3.28;;;;;;;21.02;37.69;100755.13;5013356;28;20044;-84
2022/04/12 11:36:43;;;;;;;7.47;3.50;;;;;;;20.98;38.52;100751.47;5013940;28;20049;-89
2022/04/12 11:39:08;;;;;;;11.93;3.80;;;;;;;21.30;38.38;100752.69;5019075;28;20273;-90
2022/04/12 11:41:34;;;;;;;12.02;3.92;;;;;;;21.52;36.25;100741.75;5025147;28;20061;-90
2022/04/12 11:44:04;;;;;;;9.93;3.60;;;;;;;21.69;36.89;100741.63;5010899;28;20113;-87
2022/04/12 11:46:31;;;;;;;5.97;3.58;;;;;;;21.72;37.13;100751.06;5017595;28;20064;-93
2022/04/12 11:49:07;;;;;;;6.30;3.83;;;;;;;21.62;36.42;100755.03;5019033;28;20044;-89
2022/04/12 11:51:48;;;;;;;7.33;4.00;;;;;;;21.70;37.64;100756.06;5016147;28;20321;-87
2022/04/12 11:54:27;;;;;;;8.27;4.05;;;;;;;21.63;36.71;100756.63;5006211;28;20101;-86
2022/04/12 11:57:23;;;;;;;7.60;3.67;;;;;;;21.59;37.16;100752.94;5016367;28;20026;-87
2022/04/12 11:59:55;;;;;;;5.20;3.50;;;;;;;21.52;37.11;100753.47;5013223;28;20022;-89
2022/04/12 12:02:22;;;;;;;8.40;3.47;;;;;;;21.70;36.91;100756.06;5013363;28;20053;-88
2022/04/12 12:04:58;;;;;;;5.78;3.25;;;;;;;21.94;36.70;100760.78;5012949;28;20088;-87
2022/04/12 12:07:25;;;;;;;6.65;3.25;;;;;;;22.20;36.58;100779.59;5013509;28;20018;-88
2022/04/12 12:09:53;;;;;;;5.88;3.20;;;;;;;22.23;35.94;100767.22;5013456;28;20025;-88
2022/04/12 12:12:18;;;;;;;9.57;3.33;;;;;;;22.25;37.03;100764.94;5013450;28;20033;-92
2022/04/12 12:14:45;;;;;;;7.20;3.33;;;;;;;22.33;36.31;100765.97;5013867;28;20030;-91
2022/04/12 12:17:18;;;;;;;7.22;3.00;;;;;;;22.25;36.04;100762.22;5014886;28;20142;-93
2022/04/12 12:19:45;;;;;;;6.35;3.15;;;;;;;21.87;35.16;100757.81;5013853;28;20033;-93
2022/04/12 12:22:12;;;;;;;7.23;3.33;;;;;;;21.80;36.65;100757.59;5011893;28;20553;-89
2022/04/12 12:24:59;;;;;;;9.57;3.53;;;;;;;21.86;37.09;100754.31;5012728;28;20447;-87
2022/04/12 12:27:38;;;;;;;6.10;2.90;;;;;;;21.79;36.69;100748.59;5483416;22;20077;-88
2022/04/12 12:30:18;;;;;;;8.57;3.20;;;;;;;21.63;35.58;100751.94;5012420;28;20053;-87
2022/04/12 12:32:44;;;;;;;8.68;3.20;;;;;;;21.82;35.56;100744.41;5002622;28;20038;-90
2022/04/12 12:35:12;;;;;;;4.85;3.10;;;;;;;22.01;35.52;100739.19;5008264;28;20044;-91
2022/04/12 12:50:13;;;;;;;7.72;3.10;;;;;;;22.32;35.30;100742.53;5312725;22;20145;-90
2022/04/12 12:53:07;;;;;;;8.10;3.08;;;;;;;22.31;36.03;100740.94;5026788;28;20026;-88
2022/04/12 13:00:39;;;;;;;5.63;2.83;;;;;;;22.48;35.30;100729.06;5041452;28;20045;-88
2022/04/12 13:03:15;;;;;;;8.00;3.13;;;;;;;22.65;34.62;100742.47;5017831;28;20070;-90
2022/04/12 13:08:42;;;;;;;;;;;;;;;;;;;;;
2022/04/12 13:11:10;;;;;;;9.85;3.15;;;;;;;23.08;34.33;100728.53;4995269;28;20132;-88
2022/04/12 13:14:09;;;;;;;7.45;3.25;;;;;;;23.11;33.78;100727.81;5014074;28;20030;-89
2022/04/12 13:16:44;;;;;;;7.38;2.90;;;;;;;22.80;34.92;100731.97;5011969;22;20049;-89
2022/04/12 13:35:07;;;;;;;6.32;2.92;;;;;;;22.96;34.64;100688.38;5037256;28;20039;-88
2022/04/12 13:46:48;;;;;;;8.23;1.90;;;;;;;23.02;31.65;100676.03;5163124;22;20084;-90
2022/04/12 13:50:16;;;;;;;;;;;;;;;;;;;;;
2022/04/12 14:02:07;;;;;;;7.93;1.90;;;;;;;23.02;31.47;100656.91;5044631;28;20064;-90
2022/04/12 14:05:03;;;;;;;7.18;1.95;;;;;;;22.97;31.15;100655.22;5047343;28;20036;-90
2022/04/12 14:10:50;;;;;;;7.60;1.75;;;;;;;23.33;31.63;100652.75;5054127;22;20117;-87
2022/04/12 14:28:26;;;;;;;5.53;1.77;;;;;;;23.62;30.83;100653.47;5260958;22;20057;-93
2022/04/12 14:30:53;;;;;;;3.73;2.10;;;;;;;23.77;30.19;100656.56;5045138;28;20548;-92
2022/04/12 14:33:18;;;;;;;6.85;1.63;;;;;;;23.85;30.51;100644.69;5042532;28;20112;-92
2022/04/12 14:35:44;;;;;;;5.13;1.90;;;;;;;23.79;30.81;100646.06;5034958;28;20065;-88
2022/04/12 14:38:10;;;;;;;6.78;2.20;;;;;;;23.64;31.12;100640.25;5016166;28;20030;-95
2022/04/12 14:40:35;;;;;;;9.30;2.27;;;;;;;23.85;30.10;100644.69;5016618;28;20064;-92
2022/04/12 14:43:00;;;;;;;6.93;1.80;;;;;;;23.83;30.61;100638.75;5021074;28;20021;-94
2022/04/12 14:45:26;;;;;;;5.57;2.03;;;;;;;23.88;31.28;100643.97;5019486;28;20042;-94
2022/04/12 14:47:54;;;;;;;7.63;2.10;;;;;;;23.80;31.22;100636.72;5018541;28;20030;-94
2022/04/12 14:50:20;;;;;;;4.53;1.90;;;;;;;23.70;31.00;100646.25;5022844;28;20708;-93